sensor_id;sensor_type;location;lat;lon;timestamp;temperature;humidity
35277;DHT22;21401;50.878;8.050;2022-12-18T00:01:13;-8.60;99.90
35277;DHT22;21401;50.878;8.050;2022-12-18T00:03:41;-8.60;99.90
35277;DHT22;21401;50.878;8.050;2022-12-18T00:06:08;-8.70;99.90
35277;DHT22;21401;50.878;8.050;2022-12-18T00:08:34;-8.70;99.90
35277;DHT22;21401;50.878;8.050;2022-12-18T00:11:05;-8.80;99.90
35277;DHT22;21401;50.878;8.050;2022-12-18T00:13:32;-8.70;99.90
35277;DHT22;21401;50.878;8.050;2022-12-18T00:16:03;-8.70;99.90
35277;DHT22;21401;50.878;8.050;2022-12-18T00:18:29;-8.60;99.90
35277;DHT22;21401;50.878;8.050;2022-12-18T00:20:59;-8.60;99.90
35277;DHT22;21401;50.878;8.050;2022-12-18T00:23:28;-8.60;99.90
35277;DHT22;21401;50.878;8.050;2022-12-18T00:25:54;-8.70;99.90
35277;DHT22;21401;50.878;8.050;2022-12-18T00:28:21;-8.70;99.90
35277;DHT22;21401;50.878;8.050;2022-12-18T00:30:47;-8.70;99.90
35277;DHT22;21401;50.878;8.050;2022-12-18T00:33:17;-8.70;99.90
35277;DHT22;21401;50.878;8.050;2022-12-18T00:35:43;-8.80;99.90
35277;DHT22;21401;50.878;8.050;2022-12-18T00:38:09;-8.80;99.90
35277;DHT22;21401;50.878;8.050;2022-12-18T00:40:36;-8.80;99.90
35277;DHT22;21401;50.878;8.050;2022-12-18T00:43:02;-8.80;99.90
35277;DHT22;21401;50.878;8.050;2022-12-18T00:45:30;-8.90;99.90
35277;DHT22;21401;50.878;8.050;2022-12-18T00:47:57;-8.80;99.90
35277;DHT22;21401;50.878;8.050;2022-12-18T00:50:26;-8.70;99.90
35277;DHT22;21401;50.878;8.050;2022-12-18T00:52:52;-8.80;99.90
35277;DHT22;21401;50.878;8.050;2022-12-18T00:55:18;-8.80;99.90
35277;DHT22;21401;50.878;8.050;2022-12-18T00:57:45;-8.80;99.90
35277;DHT22;21401;50.878;8.050;2022-12-18T01:00:13;-8.90;99.90
35277;DHT22;21401;50.878;8.050;2022-12-18T01:02:40;-8.90;99.90
35277;DHT22;21401;50.878;8.050;2022-12-18T01:05:14;-8.80;99.90
35277;DHT22;21401;50.878;8.050;2022-12-18T01:07:40;-8.90;99.90
35277;DHT22;21401;50.878;8.050;2022-12-18T01:10:08;-8.90;99.90
35277;DHT22;21401;50.878;8.050;2022-12-18T01:12:35;-8.90;99.90
35277;DHT22;21401;50.878;8.050;2022-12-18T01:15:06;-9.00;99.90
35277;DHT22;21401;50.878;8.050;2022-12-18T01:17:32;-9.10;99.90
35277;DHT22;21401;50.878;8.050;2022-12-18T01:19:59;-9.00;99.90
35277;DHT22;21401;50.878;8.050;2022-12-18T01:22:25;-9.00;99.90
35277;DHT22;21401;50.878;8.050;2022-12-18T01:24:56;-9.00;99.90
35277;DHT22;21401;50.878;8.050;2022-12-18T01:27:22;-9.00;99.90
35277;DHT22;21401;50.878;8.050;2022-12-18T01:29:49;-9.00;99.90
35277;DHT22;21401;50.878;8.050;2022-12-18T01:32:15;-9.10;99.90
35277;DHT22;21401;50.878;8.050;2022-12-18T01:34:42;-9.10;99.90
35277;DHT22;21401;50.878;8.050;2022-12-18T01:37:08;-9.10;99.90
35277;DHT22;21401;50.878;8.050;2022-12-18T01:39:34;-9.10;99.90
35277;DHT22;21401;50.878;8.050;2022-12-18T01:42:02;-9.10;99.90
35277;DHT22;21401;50.878;8.050;2022-12-18T01:47:31;-9.10;99.90
35277;DHT22;21401;50.878;8.050;2022-12-18T01:50:00;-9.20;99.90
35277;DHT22;21401;50.878;8.050;2022-12-18T01:52:30;-9.10;99.90
35277;DHT22;21401;50.878;8.050;2022-12-18T01:54:57;-9.00;99.90
35277;DHT22;21401;50.878;8.050;2022-12-18T01:57:26;-9.00;99.90
35277;DHT22;21401;50.878;8.050;2022-12-18T01:59:54;-9.00;99.90
35277;DHT22;21401;50.878;8.050;2022-12-18T02:02:25;-9.10;99.90
35277;DHT22;21401;50.878;8.050;2022-12-18T02:04:52;-9.10;99.90
35277;DHT22;21401;50.878;8.050;2022-12-18T02:10:48;-9.00;99.90
35277;DHT22;21401;50.878;8.050;2022-12-18T02:18:50;-9.10;99.90
35277;DHT22;21401;50.878;8.050;2022-12-18T02:26:51;-9.00;99.90
35277;DHT22;21401;50.878;8.050;2022-12-18T02:29:33;-9.10;99.90
35277;DHT22;21401;50.878;8.050;2022-12-18T02:32:00;-9.40;99.90
35277;DHT22;21401;50.878;8.050;2022-12-18T02:34:33;-9.30;99.90
35277;DHT22;21401;50.878;8.050;2022-12-18T02:37:05;-9.30;99.90
35277;DHT22;21401;50.878;8.050;2022-12-18T02:39:33;-9.30;99.90
35277;DHT22;21401;50.878;8.050;2022-12-18T02:42:00;-9.30;99.90
35277;DHT22;21401;50.878;8.050;2022-12-18T02:44:41;-9.40;99.90
35277;DHT22;21401;50.878;8.050;2022-12-18T02:47:13;-9.40;99.90
35277;DHT22;21401;50.878;8.050;2022-12-18T02:55:33;-9.40;99.90
35277;DHT22;21401;50.878;8.050;2022-12-18T02:58:51;-9.30;99.90
35277;DHT22;21401;50.878;8.050;2022-12-18T03:01:03;-9.40;99.90
35277;DHT22;21401;50.878;8.050;2022-12-18T03:03:44;-9.30;99.90
35277;DHT22;21401;50.878;8.050;2022-12-18T03:08:47;-9.30;99.90
35277;DHT22;21401;50.878;8.050;2022-12-18T03:11:15;-9.30;99.90
35277;DHT22;21401;50.878;8.050;2022-12-18T03:14:03;-9.30;99.90
35277;DHT22;21401;50.878;8.050;2022-12-18T03:16:31;-9.40;99.90
35277;DHT22;21401;50.878;8.050;2022-12-18T03:19:01;-9.50;99.90
35277;DHT22;21401;50.878;8.050;2022-12-18T03:21:33;-9.50;99.90
35277;DHT22;21401;50.878;8.050;2022-12-18T03:24:02;-9.50;99.90
35277;DHT22;21401;50.878;8.050;2022-12-18T03:26:31;-9.30;99.90
35277;DHT22;21401;50.878;8.050;2022-12-18T03:29:00;-9.30;99.90
35277;DHT22;21401;50.878;8.050;2022-12-18T03:31:30;-9.10;99.90
35277;DHT22;21401;50.878;8.050;2022-12-18T03:33:59;-9.10;99.90
35277;DHT22;21401;50.878;8.050;2022-12-18T03:36:27;-9.10;99.90
35277;DHT22;21401;50.878;8.050;2022-12-18T03:38:53;-9.30;99.90
35277;DHT22;21401;50.878;8.050;2022-12-18T03:47:13;-9.60;99.90
35277;DHT22;21401;50.878;8.050;2022-12-18T03:49:55;-9.60;99.90
35277;DHT22;21401;50.878;8.050;2022-12-18T03:52:38;-9.60;99.90
35277;DHT22;21401;50.878;8.050;2022-12-18T03:55:07;-9.60;99.90
35277;DHT22;21401;50.878;8.050;2022-12-18T03:57:34;-9.30;99.90
35277;DHT22;21401;50.878;8.050;2022-12-18T04:00:08;-9.10;99.90
35277;DHT22;21401;50.878;8.050;2022-12-18T04:02:36;-9.00;99.90
35277;DHT22;21401;50.878;8.050;2022-12-18T04:05:05;-9.00;99.90
35277;DHT22;21401;50.878;8.050;2022-12-18T04:07:33;-8.80;99.90
35277;DHT22;21401;50.878;8.050;2022-12-18T04:10:03;-8.80;99.90
35277;DHT22;21401;50.878;8.050;2022-12-18T04:12:32;-8.60;99.90
35277;DHT22;21401;50.878;8.050;2022-12-18T04:14:58;-8.40;99.90
35277;DHT22;21401;50.878;8.050;2022-12-18T04:17:25;-8.30;99.90
35277;DHT22;21401;50.878;8.050;2022-12-18T04:19:54;-8.40;99.90
35277;DHT22;21401;50.878;8.050;2022-12-18T04:22:21;-8.50;99.90
35277;DHT22;21401;50.878;8.050;2022-12-18T04:24:47;-8.40;99.90
35277;DHT22;21401;50.878;8.050;2022-12-18T04:27:13;-8.50;99.90
35277;DHT22;21401;50.878;8.050;2022-12-18T04:29:40;-8.00;99.90
35277;DHT22;21401;50.878;8.050;2022-12-18T04:32:06;-8.00;99.90
35277;DHT22;21401;50.878;8.050;2022-12-18T04:34:33;-8.50;99.90
35277;DHT22;21401;50.878;8.050;2022-12-18T04:36:59;-8.40;99.90
35277;DHT22;21401;50.878;8.050;2022-12-18T04:39:25;-8.40;99.90
35277;DHT22;21401;50.878;8.050;2022-12-18T04:41:52;-8.70;99.90
35277;DHT22;21401;50.878;8.050;2022-12-18T04:44:18;-8.60;99.90
35277;DHT22;21401;50.878;8.050;2022-12-18T04:46:44;-8.50;99.90
35277;DHT22;21401;50.878;8.050;2022-12-18T04:49:11;-8.40;99.90
35277;DHT22;21401;50.878;8.050;2022-12-18T04:51:38;-8.60;99.90
35277;DHT22;21401;50.878;8.050;2022-12-18T04:54:04;-8.20;99.90
35277;DHT22;21401;50.878;8.050;2022-12-18T04:56:31;-8.10;99.90
35277;DHT22;21401;50.878;8.050;2022-12-18T04:58:57;-8.10;99.90
35277;DHT22;21401;50.878;8.050;2022-12-18T05:01:24;-7.90;99.90
35277;DHT22;21401;50.878;8.050;2022-12-18T05:03:51;-7.80;99.90
35277;DHT22;21401;50.878;8.050;2022-12-18T05:06:17;-7.80;99.90
35277;DHT22;21401;50.878;8.050;2022-12-18T05:08:46;-7.80;99.90
35277;DHT22;21401;50.878;8.050;2022-12-18T05:11:16;-7.60;99.90
35277;DHT22;21401;50.878;8.050;2022-12-18T05:13:43;-7.40;99.90
35277;DHT22;21401;50.878;8.050;2022-12-18T05:16:10;-7.40;99.90
35277;DHT22;21401;50.878;8.050;2022-12-18T05:18:36;-7.60;99.90
35277;DHT22;21401;50.878;8.050;2022-12-18T05:21:10;-7.50;99.90
35277;DHT22;21401;50.878;8.050;2022-12-18T05:23:36;-7.50;99.90
35277;DHT22;21401;50.878;8.050;2022-12-18T05:26:04;-7.30;99.90
35277;DHT22;21401;50.878;8.050;2022-12-18T05:28:33;-7.20;99.90
35277;DHT22;21401;50.878;8.050;2022-12-18T05:31:01;-7.20;99.90
35277;DHT22;21401;50.878;8.050;2022-12-18T05:33:31;-6.30;99.90
35277;DHT22;21401;50.878;8.050;2022-12-18T05:36:02;-6.20;99.90
35277;DHT22;21401;50.878;8.050;2022-12-18T05:38:30;-6.30;99.90
35277;DHT22;21401;50.878;8.050;2022-12-18T05:40:59;-6.20;99.90
35277;DHT22;21401;50.878;8.050;2022-12-18T05:43:26;-5.90;99.90
35277;DHT22;21401;50.878;8.050;2022-12-18T05:45:53;-5.90;99.90
35277;DHT22;21401;50.878;8.050;2022-12-18T05:48:20;-5.80;99.90
35277;DHT22;21401;50.878;8.050;2022-12-18T05:50:47;-5.60;99.90
35277;DHT22;21401;50.878;8.050;2022-12-18T05:53:16;-5.40;99.90
35277;DHT22;21401;50.878;8.050;2022-12-18T05:55:44;-5.30;99.90
35277;DHT22;21401;50.878;8.050;2022-12-18T05:58:12;-5.40;99.90
35277;DHT22;21401;50.878;8.050;2022-12-18T06:00:40;-5.30;99.90
35277;DHT22;21401;50.878;8.050;2022-12-18T06:03:10;-5.20;99.90
35277;DHT22;21401;50.878;8.050;2022-12-18T06:05:38;-5.30;99.90
35277;DHT22;21401;50.878;8.050;2022-12-18T06:08:09;-5.20;99.90
35277;DHT22;21401;50.878;8.050;2022-12-18T06:10:36;-5.30;99.90
35277;DHT22;21401;50.878;8.050;2022-12-18T06:13:03;-5.70;99.90
35277;DHT22;21401;50.878;8.050;2022-12-18T06:15:29;-5.60;99.90
35277;DHT22;21401;50.878;8.050;2022-12-18T06:17:56;-5.40;99.90
35277;DHT22;21401;50.878;8.050;2022-12-18T06:20:22;-5.30;99.90
35277;DHT22;21401;50.878;8.050;2022-12-18T06:22:48;-5.30;99.90
35277;DHT22;21401;50.878;8.050;2022-12-18T06:25:15;-5.20;99.90
35277;DHT22;21401;50.878;8.050;2022-12-18T06:27:41;-5.60;99.90
35277;DHT22;21401;50.878;8.050;2022-12-18T06:30:08;-5.40;99.90
35277;DHT22;21401;50.878;8.050;2022-12-18T06:32:35;-5.30;99.90
35277;DHT22;21401;50.878;8.050;2022-12-18T06:35:01;-5.20;99.90
35277;DHT22;21401;50.878;8.050;2022-12-18T06:37:28;-5.10;99.90
35277;DHT22;21401;50.878;8.050;2022-12-18T06:39:54;-5.10;99.90
35277;DHT22;21401;50.878;8.050;2022-12-18T06:42:22;-5.10;99.90
35277;DHT22;21401;50.878;8.050;2022-12-18T06:44:48;-5.00;99.90
35277;DHT22;21401;50.878;8.050;2022-12-18T06:47:15;-4.90;99.90
35277;DHT22;21401;50.878;8.050;2022-12-18T06:49:41;-4.90;99.90
35277;DHT22;21401;50.878;8.050;2022-12-18T06:52:07;-4.90;99.90
35277;DHT22;21401;50.878;8.050;2022-12-18T06:54:36;-4.90;99.90
35277;DHT22;21401;50.878;8.050;2022-12-18T06:57:03;-4.80;99.90
35277;DHT22;21401;50.878;8.050;2022-12-18T06:59:32;-5.00;99.90
35277;DHT22;21401;50.878;8.050;2022-12-18T07:01:58;-5.00;99.90
35277;DHT22;21401;50.878;8.050;2022-12-18T07:04:31;-4.90;99.90
35277;DHT22;21401;50.878;8.050;2022-12-18T07:06:57;-4.80;99.90
35277;DHT22;21401;50.878;8.050;2022-12-18T07:09:24;-4.80;99.90
35277;DHT22;21401;50.878;8.050;2022-12-18T07:11:50;-4.90;99.90
35277;DHT22;21401;50.878;8.050;2022-12-18T07:14:17;-4.80;99.90
35277;DHT22;21401;50.878;8.050;2022-12-18T07:16:43;-4.60;99.90
35277;DHT22;21401;50.878;8.050;2022-12-18T07:19:10;-4.60;99.90
35277;DHT22;21401;50.878;8.050;2022-12-18T07:21:36;-4.60;99.90
35277;DHT22;21401;50.878;8.050;2022-12-18T07:24:02;-4.60;99.90
35277;DHT22;21401;50.878;8.050;2022-12-18T07:26:29;-4.60;99.90
35277;DHT22;21401;50.878;8.050;2022-12-18T07:28:58;-4.70;99.90
35277;DHT22;21401;50.878;8.050;2022-12-18T07:31:25;-4.70;99.90
35277;DHT22;21401;50.878;8.050;2022-12-18T07:33:52;-4.60;99.90
35277;DHT22;21401;50.878;8.050;2022-12-18T07:36:24;-4.50;99.90
35277;DHT22;21401;50.878;8.050;2022-12-18T07:38:50;-4.50;99.90
35277;DHT22;21401;50.878;8.050;2022-12-18T07:41:18;-4.50;99.90
35277;DHT22;21401;50.878;8.050;2022-12-18T07:43:45;-4.50;99.90
35277;DHT22;21401;50.878;8.050;2022-12-18T07:46:12;-4.50;99.90
35277;DHT22;21401;50.878;8.050;2022-12-18T07:48:42;-4.50;99.90
35277;DHT22;21401;50.878;8.050;2022-12-18T07:51:11;-4.60;99.90
35277;DHT22;21401;50.878;8.050;2022-12-18T07:53:38;-4.60;99.90
35277;DHT22;21401;50.878;8.050;2022-12-18T07:56:09;-4.50;99.90
35277;DHT22;21401;50.878;8.050;2022-12-18T07:58:38;-4.50;99.90
35277;DHT22;21401;50.878;8.050;2022-12-18T08:01:05;-4.40;99.90
35277;DHT22;21401;50.878;8.050;2022-12-18T08:03:32;-4.30;99.90
35277;DHT22;21401;50.878;8.050;2022-12-18T08:05:59;-4.20;99.90
35277;DHT22;21401;50.878;8.050;2022-12-18T08:08:26;-4.20;99.90
35277;DHT22;21401;50.878;8.050;2022-12-18T08:10:52;-4.20;99.90
35277;DHT22;21401;50.878;8.050;2022-12-18T08:13:19;-4.10;99.90
35277;DHT22;21401;50.878;8.050;2022-12-18T08:15:45;-4.00;99.90
35277;DHT22;21401;50.878;8.050;2022-12-18T08:18:12;-4.00;99.90
35277;DHT22;21401;50.878;8.050;2022-12-18T08:20:44;-4.00;99.90
35277;DHT22;21401;50.878;8.050;2022-12-18T08:23:13;-3.90;99.90
35277;DHT22;21401;50.878;8.050;2022-12-18T08:25:39;-3.90;99.90
35277;DHT22;21401;50.878;8.050;2022-12-18T08:28:08;-3.90;99.90
35277;DHT22;21401;50.878;8.050;2022-12-18T08:30:35;-3.80;99.90
35277;DHT22;21401;50.878;8.050;2022-12-18T08:33:01;-3.80;99.90
35277;DHT22;21401;50.878;8.050;2022-12-18T08:35:34;-3.80;99.90
35277;DHT22;21401;50.878;8.050;2022-12-18T08:38:00;-3.80;99.90
35277;DHT22;21401;50.878;8.050;2022-12-18T08:40:29;-3.70;99.90
35277;DHT22;21401;50.878;8.050;2022-12-18T08:42:57;-3.70;99.90
35277;DHT22;21401;50.878;8.050;2022-12-18T08:45:42;-3.70;99.90
35277;DHT22;21401;50.878;8.050;2022-12-18T08:48:08;-3.60;99.90
35277;DHT22;21401;50.878;8.050;2022-12-18T08:50:40;-3.60;99.90
35277;DHT22;21401;50.878;8.050;2022-12-18T08:53:07;-3.40;99.90
35277;DHT22;21401;50.878;8.050;2022-12-18T08:55:38;-3.40;99.90
35277;DHT22;21401;50.878;8.050;2022-12-18T08:58:10;-3.40;99.90
35277;DHT22;21401;50.878;8.050;2022-12-18T09:00:37;-3.30;99.90
35277;DHT22;21401;50.878;8.050;2022-12-18T09:03:11;-3.20;99.90
35277;DHT22;21401;50.878;8.050;2022-12-18T09:05:37;-3.20;99.90
35277;DHT22;21401;50.878;8.050;2022-12-18T09:08:38;-3.10;99.90
35277;DHT22;21401;50.878;8.050;2022-12-18T09:11:22;-2.90;99.90
35277;DHT22;21401;50.878;8.050;2022-12-18T09:13:52;-3.00;99.90
35277;DHT22;21401;50.878;8.050;2022-12-18T09:16:20;-2.90;99.90
35277;DHT22;21401;50.878;8.050;2022-12-18T09:18:47;-2.70;99.90
35277;DHT22;21401;50.878;8.050;2022-12-18T09:24:42;-2.60;99.90
35277;DHT22;21401;50.878;8.050;2022-12-18T09:27:47;-2.50;99.90
35277;DHT22;21401;50.878;8.050;2022-12-18T09:30:43;-2.50;99.90
35277;DHT22;21401;50.878;8.050;2022-12-18T09:33:32;-2.50;99.90
35277;DHT22;21401;50.878;8.050;2022-12-18T09:36:33;-2.40;99.90
35277;DHT22;21401;50.878;8.050;2022-12-18T09:42:44;-2.30;99.90
35277;DHT22;21401;50.878;8.050;2022-12-18T09:45:40;-2.30;99.90
35277;DHT22;21401;50.878;8.050;2022-12-18T09:48:31;-2.20;99.90
35277;DHT22;21401;50.878;8.050;2022-12-18T09:51:47;-2.20;99.90
35277;DHT22;21401;50.878;8.050;2022-12-18T09:54:48;-2.20;99.90
35277;DHT22;21401;50.878;8.050;2022-12-18T09:57:42;-2.10;99.90
35277;DHT22;21401;50.878;8.050;2022-12-18T10:00:55;-2.00;99.90
35277;DHT22;21401;50.878;8.050;2022-12-18T10:03:26;-2.00;99.90
35277;DHT22;21401;50.878;8.050;2022-12-18T10:26:46;-1.60;99.90
35277;DHT22;21401;50.878;8.050;2022-12-18T10:33:21;-1.50;99.90
35277;DHT22;21401;50.878;8.050;2022-12-18T11:36:01;-0.40;99.90
35277;DHT22;21401;50.878;8.050;2022-12-18T11:38:45;-0.70;99.90
35277;DHT22;21401;50.878;8.050;2022-12-18T13:51:55;-3.10;99.90
35277;DHT22;21401;50.878;8.050;2022-12-18T13:54:46;-3.00;99.90
35277;DHT22;21401;50.878;8.050;2022-12-18T13:57:36;-3.10;99.90
35277;DHT22;21401;50.878;8.050;2022-12-18T14:00:26;-3.20;99.90
35277;DHT22;21401;50.878;8.050;2022-12-18T14:02:54;-3.30;99.90
35277;DHT22;21401;50.878;8.050;2022-12-18T14:05:27;-3.30;99.90
35277;DHT22;21401;50.878;8.050;2022-12-18T14:07:59;-3.30;99.90
35277;DHT22;21401;50.878;8.050;2022-12-18T14:10:29;-3.30;99.90
35277;DHT22;21401;50.878;8.050;2022-12-18T14:12:57;-3.40;99.90
35277;DHT22;21401;50.878;8.050;2022-12-18T14:15:33;-3.40;99.90
35277;DHT22;21401;50.878;8.050;2022-12-18T14:20:31;-3.50;99.90
35277;DHT22;21401;50.878;8.050;2022-12-18T14:22:59;-3.50;99.90
35277;DHT22;21401;50.878;8.050;2022-12-18T14:25:30;-3.50;99.90
35277;DHT22;21401;50.878;8.050;2022-12-18T14:30:42;-3.50;99.90
35277;DHT22;21401;50.878;8.050;2022-12-18T14:35:51;-3.60;99.90
35277;DHT22;21401;50.878;8.050;2022-12-18T14:41:12;-3.60;99.90
35277;DHT22;21401;50.878;8.050;2022-12-18T14:43:40;-3.60;99.90
35277;DHT22;21401;50.878;8.050;2022-12-18T14:49:01;-3.70;99.90
35277;DHT22;21401;50.878;8.050;2022-12-18T14:51:33;-3.70;99.90
35277;DHT22;21401;50.878;8.050;2022-12-18T14:54:04;-3.70;99.90
35277;DHT22;21401;50.878;8.050;2022-12-18T14:56:42;-3.70;99.90
35277;DHT22;21401;50.878;8.050;2022-12-18T14:59:20;-3.70;99.90
35277;DHT22;21401;50.878;8.050;2022-12-18T15:02:04;-3.70;99.90
35277;DHT22;21401;50.878;8.050;2022-12-18T15:04:45;-3.80;99.90
35277;DHT22;21401;50.878;8.050;2022-12-18T15:13:22;-3.90;99.90
35277;DHT22;21401;50.878;8.050;2022-12-18T15:15:46;-4.00;99.90
35277;DHT22;21401;50.878;8.050;2022-12-18T15:18:27;-4.00;99.90
35277;DHT22;21401;50.878;8.050;2022-12-18T15:21:19;-4.00;99.90
35277;DHT22;21401;50.878;8.050;2022-12-18T15:24:15;-4.10;99.90
35277;DHT22;21401;50.878;8.050;2022-12-18T15:27:38;-4.20;99.90
35277;DHT22;21401;50.878;8.050;2022-12-18T15:33:45;-4.20;99.90
35277;DHT22;21401;50.878;8.050;2022-12-18T15:37:15;-4.30;99.90
35277;DHT22;21401;50.878;8.050;2022-12-18T15:40:24;-4.30;99.90
35277;DHT22;21401;50.878;8.050;2022-12-18T15:43:04;-4.30;99.90
35277;DHT22;21401;50.878;8.050;2022-12-18T15:45:52;-4.30;99.90
35277;DHT22;21401;50.878;8.050;2022-12-18T15:48:23;-4.40;99.90
35277;DHT22;21401;50.878;8.050;2022-12-18T15:51:40;-4.40;99.90
35277;DHT22;21401;50.878;8.050;2022-12-18T16:01:46;-4.40;99.90
35277;DHT22;21401;50.878;8.050;2022-12-18T16:04:20;-4.50;99.90
35277;DHT22;21401;50.878;8.050;2022-12-18T16:17:10;-4.50;99.90
35277;DHT22;21401;50.878;8.050;2022-12-18T16:19:36;-4.50;99.90
35277;DHT22;21401;50.878;8.050;2022-12-18T16:32:57;-4.50;99.90
35277;DHT22;21401;50.878;8.050;2022-12-18T16:38:46;-4.60;99.90
35277;DHT22;21401;50.878;8.050;2022-12-18T16:44:48;-4.50;99.90
35277;DHT22;21401;50.878;8.050;2022-12-18T16:47:34;-4.60;99.90
35277;DHT22;21401;50.878;8.050;2022-12-18T16:50:05;-4.50;99.90
35277;DHT22;21401;50.878;8.050;2022-12-18T16:52:37;-4.60;99.90
35277;DHT22;21401;50.878;8.050;2022-12-18T16:55:57;-4.50;99.90
35277;DHT22;21401;50.878;8.050;2022-12-18T17:05:40;-4.50;99.90
35277;DHT22;21401;50.878;8.050;2022-12-18T17:08:34;-4.50;99.90
35277;DHT22;21401;50.878;8.050;2022-12-18T17:11:27;-4.20;99.90
35277;DHT22;21401;50.878;8.050;2022-12-18T17:13:55;-4.40;99.90
35277;DHT22;21401;50.878;8.050;2022-12-18T17:16:21;-4.50;99.90
35277;DHT22;21401;50.878;8.050;2022-12-18T17:18:47;-4.50;99.90
35277;DHT22;21401;50.878;8.050;2022-12-18T17:21:13;-4.50;99.90
35277;DHT22;21401;50.878;8.050;2022-12-18T17:23:40;-4.50;99.90
35277;DHT22;21401;50.878;8.050;2022-12-18T17:26:09;-4.50;99.90
35277;DHT22;21401;50.878;8.050;2022-12-18T17:28:37;-4.40;99.90
35277;DHT22;21401;50.878;8.050;2022-12-18T17:31:19;-4.40;99.90
35277;DHT22;21401;50.878;8.050;2022-12-18T17:34:04;-4.40;99.90
35277;DHT22;21401;50.878;8.050;2022-12-18T17:36:32;-4.40;99.90
35277;DHT22;21401;50.878;8.050;2022-12-18T17:38:59;-4.40;99.90
35277;DHT22;21401;50.878;8.050;2022-12-18T17:41:26;-4.40;99.90
35277;DHT22;21401;50.878;8.050;2022-12-18T17:44:00;-4.40;99.90
35277;DHT22;21401;50.878;8.050;2022-12-18T17:46:28;-4.40;99.90
35277;DHT22;21401;50.878;8.050;2022-12-18T17:48:57;-4.40;99.90
35277;DHT22;21401;50.878;8.050;2022-12-18T17:51:26;-4.30;99.90
35277;DHT22;21401;50.878;8.050;2022-12-18T17:53:52;-4.30;99.90
35277;DHT22;21401;50.878;8.050;2022-12-18T17:56:20;-4.30;99.90
35277;DHT22;21401;50.878;8.050;2022-12-18T17:58:46;-4.30;99.90
35277;DHT22;21401;50.878;8.050;2022-12-18T18:01:14;-4.30;99.90
35277;DHT22;21401;50.878;8.050;2022-12-18T18:03:40;-4.30;99.90
35277;DHT22;21401;50.878;8.050;2022-12-18T18:06:07;-4.20;99.90
35277;DHT22;21401;50.878;8.050;2022-12-18T18:08:35;-4.20;99.90
35277;DHT22;21401;50.878;8.050;2022-12-18T18:11:06;-4.20;99.90
35277;DHT22;21401;50.878;8.050;2022-12-18T18:13:50;-4.20;99.90
35277;DHT22;21401;50.878;8.050;2022-12-18T18:16:25;-4.20;99.90
35277;DHT22;21401;50.878;8.050;2022-12-18T18:18:51;-4.10;99.90
35277;DHT22;21401;50.878;8.050;2022-12-18T18:21:17;-4.10;99.90
35277;DHT22;21401;50.878;8.050;2022-12-18T18:23:42;-4.10;99.90
35277;DHT22;21401;50.878;8.050;2022-12-18T18:26:08;-4.10;99.90
35277;DHT22;21401;50.878;8.050;2022-12-18T18:28:37;-4.10;99.90
35277;DHT22;21401;50.878;8.050;2022-12-18T18:31:06;-4.10;99.90
35277;DHT22;21401;50.878;8.050;2022-12-18T18:33:32;-4.00;99.90
35277;DHT22;21401;50.878;8.050;2022-12-18T18:35:58;-4.00;99.90
35277;DHT22;21401;50.878;8.050;2022-12-18T18:38:26;-4.00;99.90
35277;DHT22;21401;50.878;8.050;2022-12-18T18:41:02;-4.00;99.90
35277;DHT22;21401;50.878;8.050;2022-12-18T18:43:29;-4.00;99.90
35277;DHT22;21401;50.878;8.050;2022-12-18T18:45:58;-4.00;99.90
35277;DHT22;21401;50.878;8.050;2022-12-18T18:48:25;-4.00;99.90
35277;DHT22;21401;50.878;8.050;2022-12-18T18:53:32;-3.90;99.90
35277;DHT22;21401;50.878;8.050;2022-12-18T18:55:59;-3.90;99.90
35277;DHT22;21401;50.878;8.050;2022-12-18T18:58:25;-3.90;99.90
35277;DHT22;21401;50.878;8.050;2022-12-18T19:00:58;-3.80;99.90
35277;DHT22;21401;50.878;8.050;2022-12-18T19:03:24;-3.80;99.90
35277;DHT22;21401;50.878;8.050;2022-12-18T19:05:57;-3.80;99.90
35277;DHT22;21401;50.878;8.050;2022-12-18T19:08:26;-3.80;99.90
35277;DHT22;21401;50.878;8.050;2022-12-18T19:10:57;-3.80;99.90
35277;DHT22;21401;50.878;8.050;2022-12-18T19:13:24;-3.70;99.90
35277;DHT22;21401;50.878;8.050;2022-12-18T19:15:56;-3.70;99.90
35277;DHT22;21401;50.878;8.050;2022-12-18T19:18:26;-3.70;99.90
35277;DHT22;21401;50.878;8.050;2022-12-18T19:21:05;-3.70;99.90
35277;DHT22;21401;50.878;8.050;2022-12-18T19:23:31;-3.70;99.90
35277;DHT22;21401;50.878;8.050;2022-12-18T19:26:04;-3.70;99.90
35277;DHT22;21401;50.878;8.050;2022-12-18T19:28:33;-3.70;99.90
35277;DHT22;21401;50.878;8.050;2022-12-18T19:31:02;-3.60;99.90
35277;DHT22;21401;50.878;8.050;2022-12-18T19:33:31;-3.60;99.90
35277;DHT22;21401;50.878;8.050;2022-12-18T19:35:57;-3.60;99.90
35277;DHT22;21401;50.878;8.050;2022-12-18T19:38:23;-3.50;99.90
35277;DHT22;21401;50.878;8.050;2022-12-18T19:40:49;-3.50;99.90
35277;DHT22;21401;50.878;8.050;2022-12-18T19:43:14;-3.50;99.90
35277;DHT22;21401;50.878;8.050;2022-12-18T19:45:40;-3.40;99.90
35277;DHT22;21401;50.878;8.050;2022-12-18T19:48:06;-3.40;99.90
35277;DHT22;21401;50.878;8.050;2022-12-18T19:50:33;-3.20;99.90
35277;DHT22;21401;50.878;8.050;2022-12-18T19:53:01;-3.30;99.90
35277;DHT22;21401;50.878;8.050;2022-12-18T19:55:26;-3.40;99.90
35277;DHT22;21401;50.878;8.050;2022-12-18T19:57:52;-3.40;99.90
35277;DHT22;21401;50.878;8.050;2022-12-18T20:00:18;-3.30;99.90
35277;DHT22;21401;50.878;8.050;2022-12-18T20:02:43;-3.30;99.90
35277;DHT22;21401;50.878;8.050;2022-12-18T20:05:11;-3.30;99.90
35277;DHT22;21401;50.878;8.050;2022-12-18T20:07:39;-3.30;99.90
35277;DHT22;21401;50.878;8.050;2022-12-18T20:10:06;-3.30;99.90
35277;DHT22;21401;50.878;8.050;2022-12-18T20:12:32;-3.30;99.90
35277;DHT22;21401;50.878;8.050;2022-12-18T20:14:58;-3.20;99.90
35277;DHT22;21401;50.878;8.050;2022-12-18T20:17:23;-3.20;99.90
35277;DHT22;21401;50.878;8.050;2022-12-18T20:19:49;-3.20;99.90
35277;DHT22;21401;50.878;8.050;2022-12-18T20:22:15;-3.20;99.90
35277;DHT22;21401;50.878;8.050;2022-12-18T20:24:42;-3.20;99.90
35277;DHT22;21401;50.878;8.050;2022-12-18T20:27:10;-3.10;99.90
35277;DHT22;21401;50.878;8.050;2022-12-18T20:29:36;-3.10;99.90
35277;DHT22;21401;50.878;8.050;2022-12-18T20:32:01;-3.10;99.90
35277;DHT22;21401;50.878;8.050;2022-12-18T20:34:27;-3.10;99.90
35277;DHT22;21401;50.878;8.050;2022-12-18T20:36:52;-3.00;99.90
35277;DHT22;21401;50.878;8.050;2022-12-18T20:39:18;-3.10;99.90
35277;DHT22;21401;50.878;8.050;2022-12-18T20:41:46;-3.00;99.90
35277;DHT22;21401;50.878;8.050;2022-12-18T20:44:15;-3.00;99.90
35277;DHT22;21401;50.878;8.050;2022-12-18T20:46:40;-3.00;99.90
35277;DHT22;21401;50.878;8.050;2022-12-18T20:49:06;-3.00;99.90
35277;DHT22;21401;50.878;8.050;2022-12-18T20:51:32;-2.90;99.90
35277;DHT22;21401;50.878;8.050;2022-12-18T20:53:59;-2.90;99.90
35277;DHT22;21401;50.878;8.050;2022-12-18T20:56:25;-2.80;99.90
35277;DHT22;21401;50.878;8.050;2022-12-18T20:58:54;-2.80;99.90
35277;DHT22;21401;50.878;8.050;2022-12-18T21:01:21;-2.80;99.90
35277;DHT22;21401;50.878;8.050;2022-12-18T21:03:47;-2.80;99.90
35277;DHT22;21401;50.878;8.050;2022-12-18T21:06:15;-2.80;99.90
35277;DHT22;21401;50.878;8.050;2022-12-18T21:08:41;-2.80;99.90
35277;DHT22;21401;50.878;8.050;2022-12-18T21:13:59;-2.70;99.90
35277;DHT22;21401;50.878;8.050;2022-12-18T21:16:25;-2.70;99.90
35277;DHT22;21401;50.878;8.050;2022-12-18T21:18:53;-2.60;99.90